sensor_id;sensor_type;location;lat;lon;timestamp;P1;durP1;ratioP1;P2;durP2;ratioP2
9759;SDS011;4919;48.792;9.202;2023-01-08T00:00:35;4.67;;;3.70;;
9759;SDS011;4919;48.792;9.202;2023-01-08T00:03:20;4.77;;;4.07;;
9759;SDS011;4919;48.792;9.202;2023-01-08T00:06:05;5.40;;;4.23;;
9759;SDS011;4919;48.792;9.202;2023-01-08T00:08:52;4.43;;;3.77;;
9759;SDS011;4919;48.792;9.202;2023-01-08T00:11:37;4.90;;;4.37;;
9759;SDS011;4919;48.792;9.202;2023-01-08T00:14:22;4.60;;;3.83;;
9759;SDS011;4919;48.792;9.202;2023-01-08T00:17:07;5.53;;;4.23;;
9759;SDS011;4919;48.792;9.202;2023-01-08T00:19:52;6.10;;;4.07;;
9759;SDS011;4919;48.792;9.202;2023-01-08T00:22:37;4.73;;;4.03;;
9759;SDS011;4919;48.792;9.202;2023-01-08T00:25:21;5.03;;;3.97;;
9759;SDS011;4919;48.792;9.202;2023-01-08T00:28:06;5.17;;;4.17;;
9759;SDS011;4919;48.792;9.202;2023-01-08T00:30:51;5.53;;;4.00;;
9759;SDS011;4919;48.792;9.202;2023-01-08T00:33:37;5.43;;;4.20;;
9759;SDS011;4919;48.792;9.202;2023-01-08T00:36:23;4.67;;;3.93;;
9759;SDS011;4919;48.792;9.202;2023-01-08T00:39:08;4.77;;;4.27;;
9759;SDS011;4919;48.792;9.202;2023-01-08T00:41:53;4.80;;;4.17;;
9759;SDS011;4919;48.792;9.202;2023-01-08T00:44:37;7.33;;;4.53;;
9759;SDS011;4919;48.792;9.202;2023-01-08T00:47:22;5.43;;;4.50;;
9759;SDS011;4919;48.792;9.202;2023-01-08T00:50:07;4.67;;;4.07;;
9759;SDS011;4919;48.792;9.202;2023-01-08T00:52:53;4.87;;;4.30;;
9759;SDS011;4919;48.792;9.202;2023-01-08T00:55:37;6.03;;;4.30;;
9759;SDS011;4919;48.792;9.202;2023-01-08T00:58:22;5.00;;;4.50;;
9759;SDS011;4919;48.792;9.202;2023-01-08T01:01:08;6.20;;;4.53;;
9759;SDS011;4919;48.792;9.202;2023-01-08T01:03:54;5.53;;;4.60;;
9759;SDS011;4919;48.792;9.202;2023-01-08T01:06:39;5.40;;;4.37;;
9759;SDS011;4919;48.792;9.202;2023-01-08T01:09:25;6.13;;;4.73;;
9759;SDS011;4919;48.792;9.202;2023-01-08T01:12:09;5.20;;;4.57;;
9759;SDS011;4919;48.792;9.202;2023-01-08T01:14:55;6.33;;;4.57;;
9759;SDS011;4919;48.792;9.202;2023-01-08T01:17:40;6.97;;;4.67;;
9759;SDS011;4919;48.792;9.202;2023-01-08T01:20:26;6.43;;;4.80;;
9759;SDS011;4919;48.792;9.202;2023-01-08T01:23:11;5.70;;;4.40;;
9759;SDS011;4919;48.792;9.202;2023-01-08T01:25:56;6.30;;;4.90;;
9759;SDS011;4919;48.792;9.202;2023-01-08T01:28:41;5.93;;;4.83;;
9759;SDS011;4919;48.792;9.202;2023-01-08T01:31:26;6.23;;;4.53;;
9759;SDS011;4919;48.792;9.202;2023-01-08T01:34:13;5.93;;;4.53;;
9759;SDS011;4919;48.792;9.202;2023-01-08T01:36:58;6.57;;;5.20;;
9759;SDS011;4919;48.792;9.202;2023-01-08T01:39:43;5.90;;;4.83;;
9759;SDS011;4919;48.792;9.202;2023-01-08T01:42:27;6.20;;;4.97;;
9759;SDS011;4919;48.792;9.202;2023-01-08T01:45:17;6.33;;;5.20;;
9759;SDS011;4919;48.792;9.202;2023-01-08T01:48:09;6.07;;;5.43;;
9759;SDS011;4919;48.792;9.202;2023-01-08T01:50:56;7.33;;;5.20;;
9759;SDS011;4919;48.792;9.202;2023-01-08T01:53:42;6.77;;;5.20;;
9759;SDS011;4919;48.792;9.202;2023-01-08T01:56:27;6.70;;;5.40;;
9759;SDS011;4919;48.792;9.202;2023-01-08T01:59:13;6.03;;;5.03;;
9759;SDS011;4919;48.792;9.202;2023-01-08T02:01:59;8.80;;;5.47;;
9759;SDS011;4919;48.792;9.202;2023-01-08T02:04:44;7.97;;;5.37;;
9759;SDS011;4919;48.792;9.202;2023-01-08T02:07:40;6.90;;;5.47;;
9759;SDS011;4919;48.792;9.202;2023-01-08T02:10:50;7.30;;;5.70;;
9759;SDS011;4919;48.792;9.202;2023-01-08T02:13:44;6.33;;;5.47;;
9759;SDS011;4919;48.792;9.202;2023-01-08T02:19:44;6.60;;;5.73;;
9759;SDS011;4919;48.792;9.202;2023-01-08T02:22:43;7.67;;;5.73;;
9759;SDS011;4919;48.792;9.202;2023-01-08T02:25:38;12.07;;;10.50;;
9759;SDS011;4919;48.792;9.202;2023-01-08T02:28:48;6.97;;;5.93;;
9759;SDS011;4919;48.792;9.202;2023-01-08T02:31:35;7.17;;;5.83;;
9759;SDS011;4919;48.792;9.202;2023-01-08T02:34:22;7.53;;;5.63;;
9759;SDS011;4919;48.792;9.202;2023-01-08T02:37:07;7.03;;;5.93;;
9759;SDS011;4919;48.792;9.202;2023-01-08T02:42:54;7.70;;;6.10;;
9759;SDS011;4919;48.792;9.202;2023-01-08T02:46:05;7.63;;;6.10;;
9759;SDS011;4919;48.792;9.202;2023-01-08T02:49:00;7.50;;;5.80;;
9759;SDS011;4919;48.792;9.202;2023-01-08T02:51:49;8.57;;;5.70;;
9759;SDS011;4919;48.792;9.202;2023-01-08T02:54:36;7.90;;;6.07;;
9759;SDS011;4919;48.792;9.202;2023-01-08T02:57:22;9.70;;;7.37;;
9759;SDS011;4919;48.792;9.202;2023-01-08T03:00:07;9.20;;;7.07;;
9759;SDS011;4919;48.792;9.202;2023-01-08T03:02:57;8.47;;;6.47;;
9759;SDS011;4919;48.792;9.202;2023-01-08T03:06:13;8.90;;;5.90;;
9759;SDS011;4919;48.792;9.202;2023-01-08T03:09:01;8.30;;;6.40;;
9759;SDS011;4919;48.792;9.202;2023-01-08T03:11:53;7.03;;;6.03;;
9759;SDS011;4919;48.792;9.202;2023-01-08T03:14:45;7.73;;;6.53;;
9759;SDS011;4919;48.792;9.202;2023-01-08T03:17:36;8.07;;;6.63;;
9759;SDS011;4919;48.792;9.202;2023-01-08T03:20:26;9.30;;;6.93;;
9759;SDS011;4919;48.792;9.202;2023-01-08T03:23:13;8.87;;;6.93;;
9759;SDS011;4919;48.792;9.202;2023-01-08T03:26:00;8.93;;;6.57;;
9759;SDS011;4919;48.792;9.202;2023-01-08T03:28:48;8.00;;;6.90;;
9759;SDS011;4919;48.792;9.202;2023-01-08T03:31:37;9.33;;;7.10;;
9759;SDS011;4919;48.792;9.202;2023-01-08T03:34:23;10.03;;;7.00;;
9759;SDS011;4919;48.792;9.202;2023-01-08T03:37:11;8.73;;;7.10;;
9759;SDS011;4919;48.792;9.202;2023-01-08T03:40:09;8.87;;;6.87;;
9759;SDS011;4919;48.792;9.202;2023-01-08T03:43:04;7.73;;;6.70;;
9759;SDS011;4919;48.792;9.202;2023-01-08T03:45:50;9.57;;;7.27;;
9759;SDS011;4919;48.792;9.202;2023-01-08T03:48:39;9.13;;;7.70;;
9759;SDS011;4919;48.792;9.202;2023-01-08T03:51:25;9.67;;;7.70;;
9759;SDS011;4919;48.792;9.202;2023-01-08T03:54:12;8.93;;;7.20;;
9759;SDS011;4919;48.792;9.202;2023-01-08T03:57:07;8.87;;;7.03;;
9759;SDS011;4919;48.792;9.202;2023-01-08T03:59:52;9.43;;;7.67;;
9759;SDS011;4919;48.792;9.202;2023-01-08T04:02:37;9.97;;;7.23;;
9759;SDS011;4919;48.792;9.202;2023-01-08T04:05:21;8.23;;;6.83;;
9759;SDS011;4919;48.792;9.202;2023-01-08T04:08:06;11.37;;;7.87;;
9759;SDS011;4919;48.792;9.202;2023-01-08T04:10:51;9.43;;;8.07;;
9759;SDS011;4919;48.792;9.202;2023-01-08T04:13:36;11.10;;;7.73;;
9759;SDS011;4919;48.792;9.202;2023-01-08T04:16:21;9.70;;;7.80;;
9759;SDS011;4919;48.792;9.202;2023-01-08T04:19:06;11.50;;;7.43;;
9759;SDS011;4919;48.792;9.202;2023-01-08T04:21:51;9.33;;;7.13;;
9759;SDS011;4919;48.792;9.202;2023-01-08T04:24:36;9.20;;;7.70;;
9759;SDS011;4919;48.792;9.202;2023-01-08T04:27:21;10.87;;;7.53;;
9759;SDS011;4919;48.792;9.202;2023-01-08T04:30:06;8.10;;;7.00;;
9759;SDS011;4919;48.792;9.202;2023-01-08T04:32:51;8.70;;;7.30;;
9759;SDS011;4919;48.792;9.202;2023-01-08T04:35:36;8.80;;;7.40;;
9759;SDS011;4919;48.792;9.202;2023-01-08T04:38:21;9.70;;;7.47;;
9759;SDS011;4919;48.792;9.202;2023-01-08T04:41:06;9.47;;;7.00;;
9759;SDS011;4919;48.792;9.202;2023-01-08T04:43:51;10.23;;;7.37;;
9759;SDS011;4919;48.792;9.202;2023-01-08T04:46:36;8.77;;;7.03;;
9759;SDS011;4919;48.792;9.202;2023-01-08T04:49:21;10.67;;;7.93;;
9759;SDS011;4919;48.792;9.202;2023-01-08T04:52:06;9.63;;;7.53;;
9759;SDS011;4919;48.792;9.202;2023-01-08T04:54:50;8.57;;;6.90;;
9759;SDS011;4919;48.792;9.202;2023-01-08T04:57:35;8.53;;;6.73;;
9759;SDS011;4919;48.792;9.202;2023-01-08T05:00:20;9.73;;;6.47;;
9759;SDS011;4919;48.792;9.202;2023-01-08T05:03:05;8.20;;;6.63;;
9759;SDS011;4919;48.792;9.202;2023-01-08T05:05:50;8.83;;;7.03;;
9759;SDS011;4919;48.792;9.202;2023-01-08T05:08:35;8.23;;;6.90;;
9759;SDS011;4919;48.792;9.202;2023-01-08T05:11:20;8.30;;;6.97;;
9759;SDS011;4919;48.792;9.202;2023-01-08T05:14:05;9.00;;;7.03;;
9759;SDS011;4919;48.792;9.202;2023-01-08T05:16:50;9.90;;;7.03;;
9759;SDS011;4919;48.792;9.202;2023-01-08T05:19:35;8.13;;;6.87;;
9759;SDS011;4919;48.792;9.202;2023-01-08T05:22:20;8.80;;;6.77;;
9759;SDS011;4919;48.792;9.202;2023-01-08T05:25:05;8.57;;;6.70;;
9759;SDS011;4919;48.792;9.202;2023-01-08T05:27:51;7.93;;;6.77;;
9759;SDS011;4919;48.792;9.202;2023-01-08T05:30:36;9.47;;;6.83;;
9759;SDS011;4919;48.792;9.202;2023-01-08T05:33:20;7.97;;;6.80;;
9759;SDS011;4919;48.792;9.202;2023-01-08T05:36:06;8.03;;;6.50;;
9759;SDS011;4919;48.792;9.202;2023-01-08T05:38:52;8.27;;;6.70;;
9759;SDS011;4919;48.792;9.202;2023-01-08T05:41:37;7.90;;;6.30;;
9759;SDS011;4919;48.792;9.202;2023-01-08T05:44:22;9.30;;;6.90;;
9759;SDS011;4919;48.792;9.202;2023-01-08T05:47:07;8.03;;;6.30;;
9759;SDS011;4919;48.792;9.202;2023-01-08T05:49:52;6.80;;;6.10;;
9759;SDS011;4919;48.792;9.202;2023-01-08T05:52:36;8.00;;;6.03;;
9759;SDS011;4919;48.792;9.202;2023-01-08T05:55:21;7.87;;;6.40;;
9759;SDS011;4919;48.792;9.202;2023-01-08T05:58:06;8.83;;;6.13;;
9759;SDS011;4919;48.792;9.202;2023-01-08T06:00:51;7.70;;;6.00;;
9759;SDS011;4919;48.792;9.202;2023-01-08T06:03:36;8.40;;;6.27;;
9759;SDS011;4919;48.792;9.202;2023-01-08T06:06:22;6.87;;;6.00;;
9759;SDS011;4919;48.792;9.202;2023-01-08T06:09:06;8.00;;;6.07;;
9759;SDS011;4919;48.792;9.202;2023-01-08T06:11:51;6.97;;;5.33;;
9759;SDS011;4919;48.792;9.202;2023-01-08T06:14:36;7.37;;;5.70;;
9759;SDS011;4919;48.792;9.202;2023-01-08T06:17:21;7.10;;;6.00;;
9759;SDS011;4919;48.792;9.202;2023-01-08T06:20:06;6.43;;;5.10;;
9759;SDS011;4919;48.792;9.202;2023-01-08T06:22:52;6.03;;;5.40;;
9759;SDS011;4919;48.792;9.202;2023-01-08T06:25:36;6.17;;;4.87;;
9759;SDS011;4919;48.792;9.202;2023-01-08T06:28:22;9.23;;;5.77;;
9759;SDS011;4919;48.792;9.202;2023-01-08T06:31:07;6.83;;;5.27;;
9759;SDS011;4919;48.792;9.202;2023-01-08T06:33:52;7.23;;;5.53;;
9759;SDS011;4919;48.792;9.202;2023-01-08T06:36:37;6.43;;;5.30;;
9759;SDS011;4919;48.792;9.202;2023-01-08T06:39:21;6.00;;;4.93;;
9759;SDS011;4919;48.792;9.202;2023-01-08T06:42:06;6.40;;;5.37;;
9759;SDS011;4919;48.792;9.202;2023-01-08T06:44:51;5.80;;;5.07;;
9759;SDS011;4919;48.792;9.202;2023-01-08T06:47:36;5.37;;;4.80;;
9759;SDS011;4919;48.792;9.202;2023-01-08T06:50:21;5.20;;;4.70;;
9759;SDS011;4919;48.792;9.202;2023-01-08T06:53:05;6.07;;;5.00;;
9759;SDS011;4919;48.792;9.202;2023-01-08T06:55:50;5.27;;;4.60;;
9759;SDS011;4919;48.792;9.202;2023-01-08T06:58:35;5.80;;;5.00;;
9759;SDS011;4919;48.792;9.202;2023-01-08T07:01:21;6.40;;;4.50;;
9759;SDS011;4919;48.792;9.202;2023-01-08T07:04:06;8.43;;;4.90;;
9759;SDS011;4919;48.792;9.202;2023-01-08T07:06:51;6.30;;;4.77;;
9759;SDS011;4919;48.792;9.202;2023-01-08T07:09:36;5.03;;;4.40;;
9759;SDS011;4919;48.792;9.202;2023-01-08T07:12:21;5.70;;;4.53;;
9759;SDS011;4919;48.792;9.202;2023-01-08T07:15:08;5.20;;;4.20;;
9759;SDS011;4919;48.792;9.202;2023-01-08T07:17:52;4.60;;;4.10;;
9759;SDS011;4919;48.792;9.202;2023-01-08T07:20:37;5.33;;;4.63;;
9759;SDS011;4919;48.792;9.202;2023-01-08T07:23:22;5.83;;;4.60;;
9759;SDS011;4919;48.792;9.202;2023-01-08T07:26:07;5.63;;;4.17;;
9759;SDS011;4919;48.792;9.202;2023-01-08T07:28:52;5.03;;;3.73;;
9759;SDS011;4919;48.792;9.202;2023-01-08T07:31:37;4.93;;;3.70;;
9759;SDS011;4919;48.792;9.202;2023-01-08T07:34:22;6.03;;;4.30;;
9759;SDS011;4919;48.792;9.202;2023-01-08T07:37:07;5.67;;;4.30;;
9759;SDS011;4919;48.792;9.202;2023-01-08T07:39:51;5.37;;;4.33;;
9759;SDS011;4919;48.792;9.202;2023-01-08T07:42:37;7.03;;;4.40;;
9759;SDS011;4919;48.792;9.202;2023-01-08T07:45:22;5.57;;;4.30;;
9759;SDS011;4919;48.792;9.202;2023-01-08T07:48:07;5.93;;;4.43;;
9759;SDS011;4919;48.792;9.202;2023-01-08T07:50:51;4.93;;;4.17;;
9759;SDS011;4919;48.792;9.202;2023-01-08T07:53:36;5.90;;;4.37;;
9759;SDS011;4919;48.792;9.202;2023-01-08T07:56:23;4.83;;;4.10;;
9759;SDS011;4919;48.792;9.202;2023-01-08T07:59:07;6.07;;;4.43;;
9759;SDS011;4919;48.792;9.202;2023-01-08T08:01:52;5.30;;;4.50;;
9759;SDS011;4919;48.792;9.202;2023-01-08T08:04:37;5.47;;;4.47;;
9759;SDS011;4919;48.792;9.202;2023-01-08T08:07:22;4.80;;;3.93;;
9759;SDS011;4919;48.792;9.202;2023-01-08T08:10:07;5.23;;;4.17;;
9759;SDS011;4919;48.792;9.202;2023-01-08T08:12:52;6.03;;;4.60;;
9759;SDS011;4919;48.792;9.202;2023-01-08T08:15:37;6.20;;;4.60;;
9759;SDS011;4919;48.792;9.202;2023-01-08T08:18:22;6.70;;;4.50;;
9759;SDS011;4919;48.792;9.202;2023-01-08T08:21:07;5.63;;;4.80;;
9759;SDS011;4919;48.792;9.202;2023-01-08T08:23:52;5.53;;;4.70;;
9759;SDS011;4919;48.792;9.202;2023-01-08T08:26:37;7.30;;;5.03;;
9759;SDS011;4919;48.792;9.202;2023-01-08T08:29:22;5.97;;;4.67;;
9759;SDS011;4919;48.792;9.202;2023-01-08T08:32:07;6.13;;;4.77;;
9759;SDS011;4919;48.792;9.202;2023-01-08T08:34:52;5.73;;;5.03;;
9759;SDS011;4919;48.792;9.202;2023-01-08T08:37:36;5.33;;;4.40;;
9759;SDS011;4919;48.792;9.202;2023-01-08T08:40:21;5.13;;;4.30;;
9759;SDS011;4919;48.792;9.202;2023-01-08T08:43:07;5.83;;;4.20;;
9759;SDS011;4919;48.792;9.202;2023-01-08T08:45:54;5.47;;;4.33;;
9759;SDS011;4919;48.792;9.202;2023-01-08T08:48:39;4.83;;;4.27;;
9759;SDS011;4919;48.792;9.202;2023-01-08T08:51:24;6.40;;;4.93;;
9759;SDS011;4919;48.792;9.202;2023-01-08T08:54:09;5.27;;;4.07;;
9759;SDS011;4919;48.792;9.202;2023-01-08T08:56:54;5.33;;;3.90;;
9759;SDS011;4919;48.792;9.202;2023-01-08T08:59:39;4.83;;;4.00;;
9759;SDS011;4919;48.792;9.202;2023-01-08T09:02:24;4.40;;;3.67;;
9759;SDS011;4919;48.792;9.202;2023-01-08T09:05:10;4.57;;;4.10;;
9759;SDS011;4919;48.792;9.202;2023-01-08T09:07:55;4.23;;;3.73;;
9759;SDS011;4919;48.792;9.202;2023-01-08T09:10:39;4.67;;;3.90;;
9759;SDS011;4919;48.792;9.202;2023-01-08T09:13:24;4.40;;;4.00;;
9759;SDS011;4919;48.792;9.202;2023-01-08T09:16:09;4.97;;;3.90;;
9759;SDS011;4919;48.792;9.202;2023-01-08T09:18:54;4.10;;;3.47;;
9759;SDS011;4919;48.792;9.202;2023-01-08T09:21:39;4.80;;;3.77;;
9759;SDS011;4919;48.792;9.202;2023-01-08T09:24:24;4.47;;;3.93;;
9759;SDS011;4919;48.792;9.202;2023-01-08T09:27:09;5.00;;;3.97;;
9759;SDS011;4919;48.792;9.202;2023-01-08T09:29:54;5.57;;;3.80;;
9759;SDS011;4919;48.792;9.202;2023-01-08T09:32:38;5.20;;;3.90;;
9759;SDS011;4919;48.792;9.202;2023-01-08T09:35:24;5.23;;;4.07;;
9759;SDS011;4919;48.792;9.202;2023-01-08T09:38:09;4.23;;;3.80;;
9759;SDS011;4919;48.792;9.202;2023-01-08T09:40:59;4.90;;;4.07;;
9759;SDS011;4919;48.792;9.202;2023-01-08T09:43:46;5.33;;;3.80;;
9759;SDS011;4919;48.792;9.202;2023-01-08T09:46:33;4.87;;;3.93;;
9759;SDS011;4919;48.792;9.202;2023-01-08T09:49:29;4.80;;;3.93;;
9759;SDS011;4919;48.792;9.202;2023-01-08T09:52:23;5.60;;;3.93;;
9759;SDS011;4919;48.792;9.202;2023-01-08T09:55:14;4.73;;;3.80;;
9759;SDS011;4919;48.792;9.202;2023-01-08T09:57:59;10.00;;;6.83;;
9759;SDS011;4919;48.792;9.202;2023-01-08T10:00:45;15.03;;;8.00;;
9759;SDS011;4919;48.792;9.202;2023-01-08T10:03:38;14.47;;;8.33;;
9759;SDS011;4919;48.792;9.202;2023-01-08T10:06:25;6.90;;;5.10;;
9759;SDS011;4919;48.792;9.202;2023-01-08T10:09:13;5.17;;;4.30;;
9759;SDS011;4919;48.792;9.202;2023-01-08T10:12:00;5.53;;;4.30;;
9759;SDS011;4919;48.792;9.202;2023-01-08T10:14:47;5.63;;;4.50;;
9759;SDS011;4919;48.792;9.202;2023-01-08T10:17:36;6.60;;;5.10;;
9759;SDS011;4919;48.792;9.202;2023-01-08T10:20:24;5.87;;;4.30;;
9759;SDS011;4919;48.792;9.202;2023-01-08T10:23:15;7.57;;;4.97;;
9759;SDS011;4919;48.792;9.202;2023-01-08T10:26:02;7.23;;;4.90;;
9759;SDS011;4919;48.792;9.202;2023-01-08T10:28:46;5.67;;;5.03;;
9759;SDS011;4919;48.792;9.202;2023-01-08T10:31:31;10.13;;;7.97;;
9759;SDS011;4919;48.792;9.202;2023-01-08T10:37:15;8.03;;;6.83;;
9759;SDS011;4919;48.792;9.202;2023-01-08T10:43:15;7.70;;;6.53;;
9759;SDS011;4919;48.792;9.202;2023-01-08T10:46:11;14.43;;;9.57;;
9759;SDS011;4919;48.792;9.202;2023-01-08T10:49:03;18.10;;;14.90;;
9759;SDS011;4919;48.792;9.202;2023-01-08T10:51:50;19.17;;;14.77;;
9759;SDS011;4919;48.792;9.202;2023-01-08T10:54:38;12.47;;;9.33;;
9759;SDS011;4919;48.792;9.202;2023-01-08T10:57:27;9.43;;;7.73;;
9759;SDS011;4919;48.792;9.202;2023-01-08T11:00:29;10.70;;;8.10;;
9759;SDS011;4919;48.792;9.202;2023-01-08T11:03:39;17.27;;;13.23;;
9759;SDS011;4919;48.792;9.202;2023-01-08T11:06:27;12.77;;;10.50;;
9759;SDS011;4919;48.792;9.202;2023-01-08T11:09:18;8.00;;;6.50;;
9759;SDS011;4919;48.792;9.202;2023-01-08T11:18:21;17.37;;;13.13;;
9759;SDS011;4919;48.792;9.202;2023-01-08T11:21:15;14.23;;;8.73;;
9759;SDS011;4919;48.792;9.202;2023-01-08T11:27:05;9.60;;;7.23;;
9759;SDS011;4919;48.792;9.202;2023-01-08T11:35:45;10.17;;;7.60;;
9759;SDS011;4919;48.792;9.202;2023-01-08T11:38:33;14.10;;;10.93;;
9759;SDS011;4919;48.792;9.202;2023-01-08T11:47:28;10.37;;;7.63;;
9759;SDS011;4919;48.792;9.202;2023-01-08T11:50:40;8.47;;;7.07;;
9759;SDS011;4919;48.792;9.202;2023-01-08T11:53:38;10.03;;;7.07;;
9759;SDS011;4919;48.792;9.202;2023-01-08T12:03:10;9.90;;;7.67;;
9759;SDS011;4919;48.792;9.202;2023-01-08T12:06:12;11.27;;;9.20;;
9759;SDS011;4919;48.792;9.202;2023-01-08T12:12:01;10.00;;;7.80;;
9759;SDS011;4919;48.792;9.202;2023-01-08T12:21:27;10.30;;;7.37;;
9759;SDS011;4919;48.792;9.202;2023-01-08T12:30:54;12.97;;;8.37;;
9759;SDS011;4919;48.792;9.202;2023-01-08T12:34:14;17.77;;;14.40;;
9759;SDS011;4919;48.792;9.202;2023-01-08T12:37:12;8.50;;;6.67;;
9759;SDS011;4919;48.792;9.202;2023-01-08T12:42:51;11.67;;;8.53;;
9759;SDS011;4919;48.792;9.202;2023-01-08T12:45:40;8.23;;;6.37;;
9759;SDS011;4919;48.792;9.202;2023-01-08T12:48:29;9.00;;;7.00;;
9759;SDS011;4919;48.792;9.202;2023-01-08T12:51:25;14.87;;;11.53;;
9759;SDS011;4919;48.792;9.202;2023-01-08T12:57:38;8.00;;;6.47;;
9759;SDS011;4919;48.792;9.202;2023-01-08T13:00:38;11.00;;;6.67;;
9759;SDS011;4919;48.792;9.202;2023-01-08T13:03:31;11.03;;;8.47;;
9759;SDS011;4919;48.792;9.202;2023-01-08T13:06:17;9.03;;;7.53;;
9759;SDS011;4919;48.792;9.202;2023-01-08T13:09:02;8.53;;;6.67;;
9759;SDS011;4919;48.792;9.202;2023-01-08T13:11:51;10.23;;;8.37;;
9759;SDS011;4919;48.792;9.202;2023-01-08T13:14:39;8.57;;;6.97;;
9759;SDS011;4919;48.792;9.202;2023-01-08T13:17:26;7.83;;;6.50;;
9759;SDS011;4919;48.792;9.202;2023-01-08T13:20:13;9.23;;;6.47;;
9759;SDS011;4919;48.792;9.202;2023-01-08T13:23:25;7.83;;;6.20;;
9759;SDS011;4919;48.792;9.202;2023-01-08T13:26:12;8.23;;;6.80;;
9759;SDS011;4919;48.792;9.202;2023-01-08T13:35:25;7.40;;;6.27;;
9759;SDS011;4919;48.792;9.202;2023-01-08T13:38:13;8.20;;;6.80;;
9759;SDS011;4919;48.792;9.202;2023-01-08T13:40:59;9.30;;;6.70;;
9759;SDS011;4919;48.792;9.202;2023-01-08T13:43:44;12.03;;;6.60;;
9759;SDS011;4919;48.792;9.202;2023-01-08T13:46:28;9.60;;;7.40;;
9759;SDS011;4919;48.792;9.202;2023-01-08T13:49:22;8.73;;;6.83;;
9759;SDS011;4919;48.792;9.202;2023-01-08T13:55:32;11.20;;;8.87;;
9759;SDS011;4919;48.792;9.202;2023-01-08T13:58:23;11.27;;;9.60;;
9759;SDS011;4919;48.792;9.202;2023-01-08T14:01:10;11.07;;;8.37;;
9759;SDS011;4919;48.792;9.202;2023-01-08T14:03:57;11.70;;;8.97;;
9759;SDS011;4919;48.792;9.202;2023-01-08T14:06:41;14.93;;;10.60;;
9759;SDS011;4919;48.792;9.202;2023-01-08T14:09:26;12.40;;;9.47;;
9759;SDS011;4919;48.792;9.202;2023-01-08T14:12:12;18.63;;;16.10;;
9759;SDS011;4919;48.792;9.202;2023-01-08T14:15:00;10.57;;;8.63;;
9759;SDS011;4919;48.792;9.202;2023-01-08T14:17:45;20.77;;;16.83;;
9759;SDS011;4919;48.792;9.202;2023-01-08T14:20:31;13.67;;;10.17;;
9759;SDS011;4919;48.792;9.202;2023-01-08T14:23:29;21.57;;;13.87;;
9759;SDS011;4919;48.792;9.202;2023-01-08T14:26:26;12.63;;;9.13;;
9759;SDS011;4919;48.792;9.202;2023-01-08T14:29:17;10.53;;;8.47;;
9759;SDS011;4919;48.792;9.202;2023-01-08T14:32:11;14.03;;;9.00;;
9759;SDS011;4919;48.792;9.202;2023-01-08T14:34:59;17.13;;;12.63;;
9759;SDS011;4919;48.792;9.202;2023-01-08T14:37:45;16.53;;;12.80;;
9759;SDS011;4919;48.792;9.202;2023-01-08T14:41:03;11.93;;;9.27;;
9759;SDS011;4919;48.792;9.202;2023-01-08T14:43:52;17.73;;;10.83;;
9759;SDS011;4919;48.792;9.202;2023-01-08T14:46:37;17.23;;;12.73;;
9759;SDS011;4919;48.792;9.202;2023-01-08T14:49:23;32.20;;;24.13;;
9759;SDS011;4919;48.792;9.202;2023-01-08T14:52:11;17.13;;;11.73;;
9759;SDS011;4919;48.792;9.202;2023-01-08T14:54:57;20.83;;;12.37;;
9759;SDS011;4919;48.792;9.202;2023-01-08T14:57:44;16.43;;;10.67;;
9759;SDS011;4919;48.792;9.202;2023-01-08T15:00:30;19.73;;;13.37;;
9759;SDS011;4919;48.792;9.202;2023-01-08T15:06:23;17.63;;;12.20;;
9759;SDS011;4919;48.792;9.202;2023-01-08T15:12:22;17.83;;;12.40;;
9759;SDS011;4919;48.792;9.202;2023-01-08T15:15:09;17.87;;;11.73;;
9759;SDS011;4919;48.792;9.202;2023-01-08T15:18:07;26.07;;;18.93;;
9759;SDS011;4919;48.792;9.202;2023-01-08T15:20:54;18.90;;;12.43;;
9759;SDS011;4919;48.792;9.202;2023-01-08T15:23:40;32.97;;;21.07;;
9759;SDS011;4919;48.792;9.202;2023-01-08T15:26:25;16.83;;;12.43;;
9759;SDS011;4919;48.792;9.202;2023-01-08T15:29:16;16.93;;;11.13;;
9759;SDS011;4919;48.792;9.202;2023-01-08T15:32:10;18.77;;;12.17;;
9759;SDS011;4919;48.792;9.202;2023-01-08T15:35:13;18.57;;;12.80;;
9759;SDS011;4919;48.792;9.202;2023-01-08T15:37:59;17.60;;;12.60;;
9759;SDS011;4919;48.792;9.202;2023-01-08T15:40:44;19.77;;;12.80;;
9759;SDS011;4919;48.792;9.202;2023-01-08T15:43:29;19.17;;;12.47;;
9759;SDS011;4919;48.792;9.202;2023-01-08T15:46:14;19.90;;;14.13;;
9759;SDS011;4919;48.792;9.202;2023-01-08T15:48:59;18.43;;;12.30;;
9759;SDS011;4919;48.792;9.202;2023-01-08T15:51:45;20.93;;;12.40;;
9759;SDS011;4919;48.792;9.202;2023-01-08T15:54:31;20.50;;;12.93;;
9759;SDS011;4919;48.792;9.202;2023-01-08T15:57:16;19.53;;;12.63;;
9759;SDS011;4919;48.792;9.202;2023-01-08T16:00:01;18.27;;;11.87;;
9759;SDS011;4919;48.792;9.202;2023-01-08T16:02:46;16.90;;;11.63;;
9759;SDS011;4919;48.792;9.202;2023-01-08T16:05:33;19.20;;;12.67;;
9759;SDS011;4919;48.792;9.202;2023-01-08T16:08:19;20.23;;;12.50;;
9759;SDS011;4919;48.792;9.202;2023-01-08T16:11:03;19.67;;;12.27;;
9759;SDS011;4919;48.792;9.202;2023-01-08T16:13:49;18.77;;;12.37;;
9759;SDS011;4919;48.792;9.202;2023-01-08T16:16:33;20.63;;;14.17;;
9759;SDS011;4919;48.792;9.202;2023-01-08T16:19:18;20.43;;;12.40;;
9759;SDS011;4919;48.792;9.202;2023-01-08T16:22:03;16.70;;;12.37;;
9759;SDS011;4919;48.792;9.202;2023-01-08T16:24:48;16.43;;;11.87;;
9759;SDS011;4919;48.792;9.202;2023-01-08T16:27:33;20.87;;;12.80;;
9759;SDS011;4919;48.792;9.202;2023-01-08T16:30:18;20.33;;;15.33;;
9759;SDS011;4919;48.792;9.202;2023-01-08T16:33:03;19.93;;;12.90;;
9759;SDS011;4919;48.792;9.202;2023-01-08T16:35:55;18.77;;;11.90;;
9759;SDS011;4919;48.792;9.202;2023-01-08T16:38:41;20.33;;;14.17;;
9759;SDS011;4919;48.792;9.202;2023-01-08T16:41:26;25.70;;;18.70;;
9759;SDS011;4919;48.792;9.202;2023-01-08T16:44:18;23.07;;;14.97;;
9759;SDS011;4919;48.792;9.202;2023-01-08T16:47:06;20.27;;;13.13;;
9759;SDS011;4919;48.792;9.202;2023-01-08T16:49:51;40.17;;;25.83;;
9759;SDS011;4919;48.792;9.202;2023-01-08T16:52:37;18.53;;;12.77;;
9759;SDS011;4919;48.792;9.202;2023-01-08T16:55:22;17.23;;;12.73;;
9759;SDS011;4919;48.792;9.202;2023-01-08T16:58:07;17.33;;;11.53;;
9759;SDS011;4919;48.792;9.202;2023-01-08T17:00:52;15.30;;;10.73;;
9759;SDS011;4919;48.792;9.202;2023-01-08T17:03:37;14.53;;;10.23;;
9759;SDS011;4919;48.792;9.202;2023-01-08T17:06:22;17.03;;;11.37;;
9759;SDS011;4919;48.792;9.202;2023-01-08T17:09:07;17.97;;;12.30;;
9759;SDS011;4919;48.792;9.202;2023-01-08T17:11:52;21.53;;;15.00;;
9759;SDS011;4919;48.792;9.202;2023-01-08T17:14:37;19.90;;;14.57;;
9759;SDS011;4919;48.792;9.202;2023-01-08T17:17:21;14.20;;;10.70;;
9759;SDS011;4919;48.792;9.202;2023-01-08T17:20:07;15.03;;;10.53;;
9759;SDS011;4919;48.792;9.202;2023-01-08T17:22:52;14.10;;;10.50;;
9759;SDS011;4919;48.792;9.202;2023-01-08T17:25:38;15.03;;;10.47;;
9759;SDS011;4919;48.792;9.202;2023-01-08T17:28:23;13.77;;;10.23;;
9759;SDS011;4919;48.792;9.202;2023-01-08T17:31:09;15.97;;;11.07;;
9759;SDS011;4919;48.792;9.202;2023-01-08T17:33:58;16.40;;;11.07;;
9759;SDS011;4919;48.792;9.202;2023-01-08T17:36:43;17.10;;;10.77;;
9759;SDS011;4919;48.792;9.202;2023-01-08T17:39:28;13.30;;;9.27;;
9759;SDS011;4919;48.792;9.202;2023-01-08T17:42:13;15.60;;;10.27;;
9759;SDS011;4919;48.792;9.202;2023-01-08T17:44:58;14.43;;;9.77;;
9759;SDS011;4919;48.792;9.202;2023-01-08T17:47:43;14.83;;;11.37;;
9759;SDS011;4919;48.792;9.202;2023-01-08T17:50:28;13.80;;;10.13;;
9759;SDS011;4919;48.792;9.202;2023-01-08T17:53:12;15.23;;;10.03;;
9759;SDS011;4919;48.792;9.202;2023-01-08T17:55:57;13.73;;;9.67;;
9759;SDS011;4919;48.792;9.202;2023-01-08T17:58:42;12.10;;;9.50;;
9759;SDS011;4919;48.792;9.202;2023-01-08T18:01:27;12.70;;;9.73;;
9759;SDS011;4919;48.792;9.202;2023-01-08T18:04:12;16.43;;;11.07;;
9759;SDS011;4919;48.792;9.202;2023-01-08T18:06:58;12.57;;;9.97;;
9759;SDS011;4919;48.792;9.202;2023-01-08T18:09:42;14.03;;;9.30;;
9759;SDS011;4919;48.792;9.202;2023-01-08T18:12:27;14.00;;;9.23;;
9759;SDS011;4919;48.792;9.202;2023-01-08T18:15:12;12.77;;;9.70;;
9759;SDS011;4919;48.792;9.202;2023-01-08T18:17:57;20.80;;;14.63;;
9759;SDS011;4919;48.792;9.202;2023-01-08T18:20:42;16.73;;;11.73;;
9759;SDS011;4919;48.792;9.202;2023-01-08T18:23:27;13.10;;;9.70;;
9759;SDS011;4919;48.792;9.202;2023-01-08T18:26:14;14.13;;;9.00;;
9759;SDS011;4919;48.792;9.202;2023-01-08T18:29:00;19.90;;;13.30;;